Norman, Indiana
Current Conditions -  °F | °C
As of 3:53 PM on Saturday 22 Nov 2014 (Local Time) from KBMG Reporting Station
Overcast Overcast  
Wind Chill: 57°   Ceiling: 4900
Heat Index: 57°   Visibility: 10mi
Dew Point: 42°   Wind: 10mph
Humidity: 57%   Direction: 190°S
Pressure: 30.05"   Gusts: 21mph
Location:  38.95°N, 86.27°W
Report Text: KBMG 222053Z 19009G18KT 10SM BKN049 OVC055 14/06 A3005 RMK AO2 SLP176 60000 T01390056 58026
Loading
Personal Weather Stations






























Interactive Weather Map New forecast layout! Learn more

10-Day Weather Forecast

Advertisements
Track Severe Weather on mobile